Terminal Aerodrome Forecast
Issued by NWS Sioux Falls, SD

Home | Current Version | Previous Version | Text Only | Print | Product List | Glossary On
Versions: 1 2 3 4 5 6 7 8 9 10 11 12 13 14 15 16
253
FTUS43 KFSD 171729
TAFFSD
TAF
KFSD 171729Z 1718/1818 VRB04KT 6SM BR OVC090
     FM180400 20004KT 6SM BR SCT100
     FM181200 20008KT P6SM FEW010
     FM181700 23009KT P6SM SKC=

USA.gov is the U.S. government's official web portal to all federal, state and local government web resources and services.